Time;durP1;ratioP1;P1;durP2;ratioP2;P2;SDS_P1;SDS_P2;PMS_P1;PMS_P2;Temp;Humidity;BMP_temperature;BMP_pressure;BME280_temperature;BME280_humidity;BME280_pressure;Samples;Min_cycle;Max_cycle;Signal;HPM_P1;HPM_P2
2023/01/30 00:00:59;;;;;;;;;;;-1.50;99.90;;;;;;5020593;28;19927;-77
2023/01/30 00:03:25;;;;;;;;;;;-1.40;99.90;;;;;;5000927;28;19909;-77
2023/01/30 00:05:53;;;;;;;;;;;-1.50;99.90;;;;;;5005685;28;19913;-76
2023/01/30 00:08:20;;;;;;;;;;;-1.50;99.90;;;;;;5005450;28;19909;-77
2023/01/30 00:10:47;;;;;;;;;;;-1.50;99.90;;;;;;5004134;28;20008;-77
2023/01/30 00:13:13;;;;;;;;;;;-1.50;99.90;;;;;;5013614;28;19909;-77
2023/01/30 00:15:41;;;;;;;;;;;-1.50;99.90;;;;;;4986895;28;19909;-77
2023/01/30 00:18:09;;;;;;;;;;;-1.50;99.90;;;;;;5004985;28;19913;-77
2023/01/30 00:20:36;;;;;;;;;;;-1.50;99.90;;;;;;5013742;28;19966;-77
2023/01/30 00:23:05;;;;;;;;;;;-1.40;99.90;;;;;;5018341;28;19924;-77
2023/01/30 00:25:32;;;;;;;;;;;-1.50;99.90;;;;;;5008234;28;19985;-77
2023/01/30 00:28:01;;;;;;;;;;;-1.40;99.90;;;;;;5013961;28;19913;-77
2023/01/30 00:30:27;;;;;;;;;;;-1.40;99.90;;;;;;4989230;28;19968;-78
2023/01/30 00:32:56;;;;;;;;;;;-1.50;99.90;;;;;;5012720;28;19923;-78
2023/01/30 00:35:27;;;;;;;;;;;-1.50;99.90;;;;;;5009001;28;19917;-76
2023/01/30 00:37:56;;;;;;;;;;;-1.60;99.90;;;;;;5015007;28;19939;-77
2023/01/30 00:40:24;;;;;;;;;;;-1.60;99.90;;;;;;5011889;28;19933;-77
2023/01/30 00:48:21;;;;;;;;;;;-1.70;99.90;;;;;;5015683;28;19920;-78
2023/01/30 00:50:47;;;;;;;;;;;-1.70;99.90;;;;;;5015453;28;19912;-78
2023/01/30 00:53:16;;;;;;;;;;;-1.80;99.90;;;;;;5013683;28;20745;-78
2023/01/30 00:55:43;;;;;;;;;;;-1.70;99.90;;;;;;5019381;28;19913;-78
2023/01/30 00:58:12;;;;;;;;;;;-1.70;99.90;;;;;;5013040;28;19986;-78
2023/01/30 01:00:40;;;;;;;;;;;-1.70;99.90;;;;;;5021971;28;19943;-78
2023/01/30 01:03:07;;;;;;;;;;;-1.80;99.90;;;;;;5020383;28;20321;-77
2023/01/30 01:05:33;;;;;;;;;;;-1.80;99.90;;;;;;5003611;28;20707;-77
2023/01/30 01:08:01;;;;;;;;;;;-1.80;99.90;;;;;;5002926;28;19952;-77
2023/01/30 01:10:28;;;;;;;;;;;-1.80;99.90;;;;;;5015612;28;19985;-77
2023/01/30 01:12:56;;;;;;;;;;;-1.80;99.90;;;;;;5010864;28;19909;-77
2023/01/30 01:15:24;;;;;;;;;;;-1.80;99.90;;;;;;5022005;28;19909;-77
2023/01/30 01:17:52;;;;;;;;;;;-1.70;99.90;;;;;;5009869;28;21406;-77
2023/01/30 01:20:21;;;;;;;;;;;-1.80;99.90;;;;;;5016909;28;19960;-77
2023/01/30 01:22:51;;;;;;;;;;;-1.90;99.90;;;;;;4991522;28;19909;-77
2023/01/30 01:25:18;;;;;;;;;;;-1.90;99.90;;;;;;5019217;28;20007;-77
2023/01/30 01:27:47;;;;;;;;;;;-1.80;99.90;;;;;;5018802;28;19917;-78
2023/01/30 01:30:13;;;;;;;;;;;-1.90;99.90;;;;;;5011221;28;19909;-78
2023/01/30 01:32:42;;;;;;;;;;;-1.90;99.90;;;;;;5007935;28;19916;-78
2023/01/30 01:35:11;;;;;;;;;;;-2.00;99.90;;;;;;5009631;28;19913;-78
2023/01/30 01:37:38;;;;;;;;;;;-1.90;99.90;;;;;;5015822;28;20028;-77
2023/01/30 01:42:51;;;;;;;;;;;-1.90;99.90;;;;;;5013069;28;19919;-78
2023/01/30 01:45:23;;;;;;;;;;;-2.00;99.90;;;;;;5012284;28;19916;-78
2023/01/30 01:47:57;;;;;;;;;;;-2.00;99.90;;;;;;5009668;28;19909;-79
2023/01/30 01:50:30;;;;;;;;;;;-2.00;99.90;;;;;;5015177;28;19909;-78
2023/01/30 01:52:58;;;;;;;;;;;-2.00;99.90;;;;;;5018058;28;19920;-77
2023/01/30 01:55:25;;;;;;;;;;;-2.10;99.90;;;;;;5020995;28;19909;-77
2023/01/30 01:57:56;;;;;;;;;;;-2.20;99.90;;;;;;5017436;28;19909;-77
2023/01/30 02:00:22;;;;;;;;;;;-2.20;99.90;;;;;;5008577;28;19925;-77
2023/01/30 02:02:53;;;;;;;;;;;-2.30;99.90;;;;;;5021591;28;20661;-77
2023/01/30 02:05:26;;;;;;;;;;;-2.40;99.90;;;;;;5003204;28;19908;-77
2023/01/30 02:08:06;;;;;;;;;;;-2.50;99.90;;;;;;5003462;28;19917;-77
2023/01/30 02:10:35;;;;;;;;;;;-2.50;99.90;;;;;;5007280;28;20023;-76
2023/01/30 02:13:03;;;;;;;;;;;-2.50;99.90;;;;;;5015271;28;20424;-76
2023/01/30 02:15:31;;;;;;;;;;;-2.50;99.90;;;;;;5002370;28;20019;-77
2023/01/30 02:17:57;;;;;;;;;;;-2.50;99.90;;;;;;5015437;28;20521;-77
2023/01/30 02:20:30;;;;;;;;;;;-2.50;99.90;;;;;;5012618;28;19952;-76
2023/01/30 02:23:22;;;;;;;;;;;-2.50;99.90;;;;;;4987853;28;20373;-76
2023/01/30 02:25:56;;;;;;;;;;;-2.50;99.90;;;;;;5009988;28;19909;-77
2023/01/30 02:28:41;;;;;;;;;;;-2.40;99.90;;;;;;4996579;28;20312;-77
2023/01/30 02:31:17;;;;;;;;;;;-2.40;99.90;;;;;;5016042;28;20032;-77
2023/01/30 02:33:48;;;;;;;;;;;-2.50;99.90;;;;;;4997652;28;19909;-77
2023/01/30 02:36:29;;;;;;;;;;;-2.40;99.90;;;;;;5020620;28;19909;-78
2023/01/30 02:39:08;;;;;;;;;;;-2.40;99.90;;;;;;4987754;28;19913;-77
2023/01/30 02:41:51;;;;;;;;;;;-2.40;99.90;;;;;;5015099;28;19920;-77
2023/01/30 02:44:26;;;;;;;;;;;-2.40;99.90;;;;;;5002698;28;20424;-76
2023/01/30 02:46:54;;;;;;;;;;;-2.50;99.90;;;;;;5010565;28;19920;-77
2023/01/30 02:49:24;;;;;;;;;;;-2.60;99.90;;;;;;5018482;28;19909;-77
2023/01/30 02:51:52;;;;;;;;;;;-2.60;99.90;;;;;;4997885;28;20306;-77
2023/01/30 02:54:18;;;;;;;;;;;-2.40;99.90;;;;;;5014202;28;20417;-77
2023/01/30 02:56:49;;;;;;;;;;;-2.40;99.90;;;;;;5016640;28;19912;-77
2023/01/30 02:59:21;;;;;;;;;;;-2.30;99.90;;;;;;5013586;28;19928;-78
2023/01/30 03:01:48;;;;;;;;;;;-2.40;99.90;;;;;;5017275;28;19991;-77
2023/01/30 03:04:26;;;;;;;;;;;-2.40;99.90;;;;;;5022232;28;19909;-77
2023/01/30 03:07:09;;;;;;;;;;;-2.50;99.90;;;;;;5014869;28;19913;-77
2023/01/30 03:10:04;;;;;;;;;;;-2.50;99.90;;;;;;5018199;28;20570;-77
2023/01/30 03:12:49;;;;;;;;;;;-2.50;99.90;;;;;;5011893;28;19919;-78
2023/01/30 03:15:25;;;;;;;;;;;-2.50;99.90;;;;;;5013275;28;19916;-78
2023/01/30 03:17:54;;;;;;;;;;;-2.50;99.90;;;;;;5018078;28;20426;-77
2023/01/30 03:20:21;;;;;;;;;;;-2.50;99.90;;;;;;5012486;28;20007;-77
2023/01/30 03:22:50;;;;;;;;;;;-2.50;99.90;;;;;;5015354;28;19917;-77
2023/01/30 03:25:24;;;;;;;;;;;-2.50;99.90;;;;;;5016787;28;20400;-77
2023/01/30 03:27:53;;;;;;;;;;;-2.50;99.90;;;;;;5013640;28;19921;-77
2023/01/30 03:30:21;;;;;;;;;;;-2.60;99.90;;;;;;5004739;28;20689;-78
2023/01/30 03:32:47;;;;;;;;;;;-2.60;99.90;;;;;;5020824;28;19913;-77
2023/01/30 03:35:16;;;;;;;;;;;-2.70;99.90;;;;;;5013526;28;19908;-77
2023/01/30 03:37:43;;;;;;;;;;;-2.60;99.90;;;;;;5000091;28;19913;-77
2023/01/30 03:40:13;;;;;;;;;;;-2.60;99.90;;;;;;5007103;28;19920;-76
2023/01/30 03:42:41;;;;;;;;;;;-2.70;99.90;;;;;;5005184;28;19913;-77
2023/01/30 03:45:09;;;;;;;;;;;-2.80;99.90;;;;;;5016729;28;19909;-76
2023/01/30 03:47:37;;;;;;;;;;;-2.80;99.90;;;;;;5006250;28;19909;-76
2023/01/30 03:50:06;;;;;;;;;;;-2.80;99.90;;;;;;5017562;28;19912;-76
2023/01/30 03:52:34;;;;;;;;;;;-2.90;99.90;;;;;;5014871;28;19952;-76
2023/01/30 03:55:01;;;;;;;;;;;-2.90;99.90;;;;;;5013923;28;20684;-76
2023/01/30 03:57:30;;;;;;;;;;;-2.80;99.90;;;;;;5014569;28;20030;-76
2023/01/30 03:59:56;;;;;;;;;;;-2.90;99.90;;;;;;5014847;28;19925;-76
2023/01/30 04:02:24;;;;;;;;;;;-2.90;99.90;;;;;;5018808;28;19916;-76
2023/01/30 04:04:52;;;;;;;;;;;-3.00;99.90;;;;;;5010123;28;20382;-77
2023/01/30 04:07:21;;;;;;;;;;;-3.00;99.90;;;;;;4986528;28;19910;-78
2023/01/30 04:09:50;;;;;;;;;;;-3.00;99.90;;;;;;5005372;28;19924;-78
2023/01/30 04:12:17;;;;;;;;;;;-3.10;99.90;;;;;;4997268;28;20383;-78
2023/01/30 04:14:46;;;;;;;;;;;-3.00;99.90;;;;;;5020832;28;19960;-78
2023/01/30 04:17:12;;;;;;;;;;;-2.80;99.90;;;;;;5011925;28;19920;-78
2023/01/30 04:19:39;;;;;;;;;;;-3.00;99.90;;;;;;4990533;28;19913;-78
2023/01/30 04:22:06;;;;;;;;;;;-3.10;99.90;;;;;;5009718;28;20439;-78
2023/01/30 04:24:34;;;;;;;;;;;-3.10;99.90;;;;;;5006623;28;19937;-76
2023/01/30 04:27:02;;;;;;;;;;;-3.20;99.90;;;;;;5022491;28;20345;-77
2023/01/30 04:29:30;;;;;;;;;;;-3.30;99.90;;;;;;5017747;28;19916;-78
2023/01/30 04:31:56;;;;;;;;;;;-3.20;99.90;;;;;;5017360;28;19916;-78
2023/01/30 04:34:25;;;;;;;;;;;-3.20;99.90;;;;;;5017238;28;20496;-77
2023/01/30 04:36:52;;;;;;;;;;;-3.20;99.90;;;;;;5012358;28;19958;-78
2023/01/30 04:39:18;;;;;;;;;;;-3.10;99.90;;;;;;5007092;28;20893;-78
2023/01/30 04:41:46;;;;;;;;;;;-3.20;99.90;;;;;;5013944;28;20005;-77
2023/01/30 04:44:15;;;;;;;;;;;-3.20;99.90;;;;;;5014017;28;19967;-77
2023/01/30 04:46:41;;;;;;;;;;;-3.20;99.90;;;;;;4995958;28;19909;-77
2023/01/30 04:49:10;;;;;;;;;;;-3.10;99.90;;;;;;5012399;28;19971;-76
2023/01/30 04:51:40;;;;;;;;;;;-3.00;99.90;;;;;;5010003;28;19912;-76
2023/01/30 04:54:06;;;;;;;;;;;-3.00;99.90;;;;;;5013340;28;19959;-76
2023/01/30 04:56:35;;;;;;;;;;;-3.20;99.90;;;;;;5013174;28;19913;-77
2023/01/30 04:59:02;;;;;;;;;;;-3.10;99.90;;;;;;5007695;28;19913;-77
2023/01/30 05:01:37;;;;;;;;;;;-3.10;99.90;;;;;;5016293;28;19909;-77
2023/01/30 05:04:06;;;;;;;;;;;-3.00;99.90;;;;;;5004525;28;20368;-77
2023/01/30 05:06:35;;;;;;;;;;;-3.00;99.90;;;;;;5007909;28;19963;-76
2023/01/30 05:09:02;;;;;;;;;;;-3.10;99.90;;;;;;5002654;28;19913;-77
2023/01/30 05:11:31;;;;;;;;;;;-3.10;99.90;;;;;;5017315;28;20004;-77
2023/01/30 05:13:59;;;;;;;;;;;-3.20;99.90;;;;;;5011595;28;20003;-77
2023/01/30 05:16:26;;;;;;;;;;;-3.10;99.90;;;;;;5004174;28;20003;-77
2023/01/30 05:18:52;;;;;;;;;;;-3.10;99.90;;;;;;5013413;28;20391;-78
2023/01/30 05:21:21;;;;;;;;;;;-3.10;99.90;;;;;;5005691;28;19913;-78
2023/01/30 05:23:51;;;;;;;;;;;-3.20;99.90;;;;;;5011466;28;20444;-78
2023/01/30 05:26:19;;;;;;;;;;;-3.10;99.90;;;;;;5011629;28;19913;-78
2023/01/30 05:28:50;;;;;;;;;;;-3.20;99.90;;;;;;5010006;28;19909;-78
2023/01/30 05:31:16;;;;;;;;;;;-3.20;99.90;;;;;;5007592;28;19909;-78
2023/01/30 05:33:42;;;;;;;;;;;-3.30;99.90;;;;;;4999714;28;19935;-77
2023/01/30 05:36:12;;;;;;;;;;;-3.20;99.90;;;;;;5003299;28;19916;-77
2023/01/30 05:38:40;;;;;;;;;;;-3.20;99.90;;;;;;5005526;28;19916;-77
2023/01/30 05:41:07;;;;;;;;;;;-3.30;99.90;;;;;;5005736;28;19921;-77
2023/01/30 05:43:34;;;;;;;;;;;-3.30;99.90;;;;;;5004154;28;19909;-77
2023/01/30 05:46:02;;;;;;;;;;;-3.30;99.90;;;;;;5011936;28;20023;-77
2023/01/30 05:48:30;;;;;;;;;;;-3.40;99.90;;;;;;5013662;28;19909;-76
2023/01/30 05:50:58;;;;;;;;;;;-3.40;99.90;;;;;;5009479;28;19909;-77
2023/01/30 05:53:26;;;;;;;;;;;-3.50;99.90;;;;;;5014516;28;19944;-77
2023/01/30 05:55:57;;;;;;;;;;;-3.50;99.90;;;;;;5004231;28;19913;-77
2023/01/30 05:58:23;;;;;;;;;;;-3.40;99.90;;;;;;5011515;28;19909;-77
2023/01/30 06:00:48;;;;;;;;;;;-3.40;99.90;;;;;;5007631;28;20381;-76
2023/01/30 06:03:14;;;;;;;;;;;-3.40;99.90;;;;;;5020789;28;19913;-77
2023/01/30 06:05:39;;;;;;;;;;;-3.50;99.90;;;;;;5009833;28;20012;-77
2023/01/30 06:08:06;;;;;;;;;;;-3.50;99.90;;;;;;5020475;28;19948;-76
2023/01/30 06:10:32;;;;;;;;;;;-3.50;99.90;;;;;;5017963;28;19918;-77
2023/01/30 06:12:58;;;;;;;;;;;-3.60;99.90;;;;;;5013005;28;20715;-77
2023/01/30 06:15:23;;;;;;;;;;;-3.60;99.90;;;;;;5000393;28;19915;-76
2023/01/30 06:17:49;;;;;;;;;;;-3.60;99.90;;;;;;5012372;28;19945;-76
2023/01/30 06:20:15;;;;;;;;;;;-3.60;99.90;;;;;;5006783;28;19927;-77
2023/01/30 06:22:40;;;;;;;;;;;-3.70;99.90;;;;;;5006682;28;19968;-76
2023/01/30 06:25:06;;;;;;;;;;;-3.70;99.90;;;;;;5009000;28;19913;-77
2023/01/30 06:27:31;;;;;;;;;;;-3.70;99.90;;;;;;5017137;28;20555;-77
2023/01/30 06:29:57;;;;;;;;;;;-3.70;99.90;;;;;;4994619;28;19919;-77
2023/01/30 06:32:22;;;;;;;;;;;-3.70;99.90;;;;;;5015102;28;19912;-76
2023/01/30 06:34:48;;;;;;;;;;;-3.60;99.90;;;;;;5021774;28;19920;-77
2023/01/30 06:37:13;;;;;;;;;;;-3.60;99.90;;;;;;5020272;28;19913;-77
2023/01/30 06:39:39;;;;;;;;;;;-3.70;99.90;;;;;;5020349;28;20380;-76
2023/01/30 06:42:06;;;;;;;;;;;-3.60;99.90;;;;;;5006429;28;19913;-77
2023/01/30 06:44:31;;;;;;;;;;;-3.50;99.90;;;;;;5015044;28;19966;-76
2023/01/30 06:46:57;;;;;;;;;;;-3.60;99.90;;;;;;5015459;28;19936;-76
2023/01/30 06:49:22;;;;;;;;;;;-3.70;99.90;;;;;;5009819;28;19960;-76
2023/01/30 06:51:48;;;;;;;;;;;-3.70;99.90;;;;;;5019929;28;19920;-77
2023/01/30 06:54:14;;;;;;;;;;;-3.80;99.90;;;;;;5022897;28;19912;-76
2023/01/30 06:56:46;;;;;;;;;;;-3.80;99.90;;;;;;5017202;28;19913;-76
2023/01/30 06:59:12;;;;;;;;;;;-3.70;99.90;;;;;;5021431;28;19918;-75
2023/01/30 07:01:38;;;;;;;;;;;-3.70;99.90;;;;;;5011479;28;19959;-75
2023/01/30 07:04:04;;;;;;;;;;;-3.80;99.90;;;;;;5020087;28;19932;-75
2023/01/30 07:06:29;;;;;;;;;;;-3.90;99.90;;;;;;5013818;28;20274;-75
2023/01/30 07:08:57;;;;;;;;;;;-3.60;99.90;;;;;;5020781;28;19958;-75
2023/01/30 07:11:25;;;;;;;;;;;-3.70;99.90;;;;;;5005647;28;20328;-75
2023/01/30 07:13:51;;;;;;;;;;;-3.80;99.90;;;;;;5018936;28;19935;-75
2023/01/30 07:16:17;;;;;;;;;;;-3.70;99.90;;;;;;5022072;28;20420;-75
2023/01/30 07:18:43;;;;;;;;;;;-3.60;99.90;;;;;;5021650;28;19909;-75
2023/01/30 07:21:08;;;;;;;;;;;-3.60;99.90;;;;;;5014138;28;20649;-76
2023/01/30 07:23:34;;;;;;;;;;;-3.40;99.90;;;;;;5018152;28;20818;-75
2023/01/30 07:26:03;;;;;;;;;;;-3.20;99.90;;;;;;5014212;28;19916;-76
2023/01/30 07:28:29;;;;;;;;;;;-3.00;99.90;;;;;;5014346;28;19915;-75
2023/01/30 07:30:58;;;;;;;;;;;-2.80;99.90;;;;;;5005277;28;19909;-76
2023/01/30 07:33:23;;;;;;;;;;;-2.60;99.90;;;;;;5015742;28;19916;-76
2023/01/30 07:35:49;;;;;;;;;;;-2.50;99.90;;;;;;5024547;28;20865;-75
2023/01/30 07:38:14;;;;;;;;;;;-2.40;99.90;;;;;;5024190;28;19913;-76
2023/01/30 07:40:40;;;;;;;;;;;-2.40;99.90;;;;;;5024142;28;19919;-75
2023/01/30 07:43:07;;;;;;;;;;;-2.40;99.90;;;;;;5024307;28;19908;-75
2023/01/30 07:45:35;;;;;;;;;;;-2.40;99.90;;;;;;5023477;28;19909;-75
2023/01/30 07:48:00;;;;;;;;;;;-2.40;99.90;;;;;;5016777;28;19967;-75
2023/01/30 07:50:26;;;;;;;;;;;-2.30;99.90;;;;;;5010811;28;20063;-76
2023/01/30 07:52:52;;;;;;;;;;;-2.30;99.90;;;;;;5016786;28;19909;-74
2023/01/30 07:55:17;;;;;;;;;;;-2.20;99.90;;;;;;5017594;28;19916;-76
2023/01/30 07:57:43;;;;;;;;;;;-2.30;99.90;;;;;;4992417;28;19916;-75
2023/01/30 08:00:09;;;;;;;;;;;-2.30;99.90;;;;;;5016643;28;20535;-75
2023/01/30 08:02:35;;;;;;;;;;;-2.30;99.90;;;;;;5011359;28;19960;-75
2023/01/30 08:05:01;;;;;;;;;;;-2.40;99.90;;;;;;5021680;28;20119;-75
2023/01/30 08:07:27;;;;;;;;;;;-2.50;99.90;;;;;;5011786;28;20502;-75
2023/01/30 08:09:52;;;;;;;;;;;-2.50;99.90;;;;;;5009377;28;19908;-75
2023/01/30 08:12:18;;;;;;;;;;;-2.40;99.90;;;;;;5020948;28;19954;-75
2023/01/30 08:14:43;;;;;;;;;;;-2.50;99.90;;;;;;5008725;28;20675;-76
2023/01/30 08:17:09;;;;;;;;;;;-2.40;99.90;;;;;;5021324;28;20710;-75
2023/01/30 08:19:34;;;;;;;;;;;-2.40;99.90;;;;;;5009561;28;19912;-75
2023/01/30 08:22:00;;;;;;;;;;;-2.20;99.90;;;;;;5009086;28;19967;-75
2023/01/30 08:24:25;;;;;;;;;;;-2.00;99.90;;;;;;5004144;28;19917;-75
2023/01/30 08:26:51;;;;;;;;;;;-1.90;99.90;;;;;;5014431;28;19959;-75
2023/01/30 08:29:17;;;;;;;;;;;-2.20;99.90;;;;;;4990288;28;19920;-75
2023/01/30 08:31:42;;;;;;;;;;;-2.20;99.90;;;;;;5014392;28;19916;-75
2023/01/30 08:34:08;;;;;;;;;;;-2.20;99.90;;;;;;5011275;28;19991;-75
2023/01/30 08:36:33;;;;;;;;;;;-2.00;99.90;;;;;;5015981;28;19909;-75
2023/01/30 08:38:59;;;;;;;;;;;-2.00;99.90;;;;;;5019821;28;19913;-75
2023/01/30 08:41:26;;;;;;;;;;;-1.90;99.90;;;;;;5018439;28;19920;-75
2023/01/30 08:43:52;;;;;;;;;;;-1.90;99.90;;;;;;5011589;28;20486;-75
2023/01/30 08:46:19;;;;;;;;;;;-1.80;99.90;;;;;;5004112;28;20023;-75
2023/01/30 08:48:45;;;;;;;;;;;-1.80;99.90;;;;;;5009920;28;19959;-75
2023/01/30 08:51:10;;;;;;;;;;;-1.60;99.90;;;;;;5008632;28;19953;-75
2023/01/30 08:53:36;;;;;;;;;;;-1.60;99.90;;;;;;5012662;28;19912;-75
2023/01/30 08:56:02;;;;;;;;;;;-1.60;99.90;;;;;;5019075;28;19909;-75
2023/01/30 08:58:27;;;;;;;;;;;-1.60;99.90;;;;;;5004332;28;19920;-75
2023/01/30 09:00:53;;;;;;;;;;;-1.70;99.90;;;;;;5013780;28;20671;-75
2023/01/30 09:03:18;;;;;;;;;;;-1.40;99.90;;;;;;5009882;28;19908;-75
2023/01/30 09:05:44;;;;;;;;;;;-1.20;99.90;;;;;;5019991;28;19909;-75
2023/01/30 09:08:10;;;;;;;;;;;-1.00;99.90;;;;;;5013972;28;19909;-75
2023/01/30 09:10:35;;;;;;;;;;;-1.10;99.90;;;;;;5003723;28;19910;-75
2023/01/30 09:13:01;;;;;;;;;;;-1.10;99.90;;;;;;5007290;28;19912;-75
2023/01/30 09:15:27;;;;;;;;;;;-0.60;99.90;;;;;;5013626;28;19910;-75
2023/01/30 09:17:52;;;;;;;;;;;-0.40;99.90;;;;;;5007348;28;20051;-75
2023/01/30 09:20:19;;;;;;;;;;;-0.50;99.90;;;;;;5009563;28;19928;-75
2023/01/30 09:22:45;;;;;;;;;;;-0.50;99.90;;;;;;5003442;28;19914;-76
2023/01/30 09:25:11;;;;;;;;;;;-0.60;99.90;;;;;;5012556;28;19916;-75
2023/01/30 09:27:36;;;;;;;;;;;-0.60;99.90;;;;;;5005888;28;19916;-75
2023/01/30 09:30:03;;;;;;;;;;;-0.50;99.90;;;;;;5012338;28;19916;-75
2023/01/30 09:32:29;;;;;;;;;;;-0.60;99.90;;;;;;5011967;28;19917;-75
2023/01/30 09:34:54;;;;;;;;;;;-0.40;99.90;;;;;;5009431;28;19909;-75
2023/01/30 09:37:20;;;;;;;;;;;-0.30;99.90;;;;;;5012377;28;19913;-75
2023/01/30 09:39:45;;;;;;;;;;;-0.40;99.90;;;;;;4984765;28;20100;-75
2023/01/30 09:42:14;;;;;;;;;;;-0.30;99.90;;;;;;5017414;28;19924;-75
2023/01/30 09:44:43;;;;;;;;;;;-0.20;99.90;;;;;;5007990;28;19916;-75
2023/01/30 09:47:10;;;;;;;;;;;-0.10;99.90;;;;;;5010890;28;19909;-76
2023/01/30 09:49:41;;;;;;;;;;;-0.20;99.90;;;;;;5009634;28;20021;-76
2023/01/30 09:52:15;;;;;;;;;;;-0.20;99.90;;;;;;5009497;28;19909;-75
2023/01/30 09:54:43;;;;;;;;;;;-0.20;99.90;;;;;;5009430;28;20495;-75
2023/01/30 09:57:15;;;;;;;;;;;-0.40;99.90;;;;;;5007164;28;19909;-75
2023/01/30 09:59:47;;;;;;;;;;;-0.20;99.90;;;;;;5014564;28;19920;-75
2023/01/30 10:02:31;;;;;;;;;;;-0.30;99.90;;;;;;5012349;28;20415;-75
2023/01/30 10:04:58;;;;;;;;;;;-0.30;99.90;;;;;;5007549;28;19906;-75
2023/01/30 10:07:42;;;;;;;;;;;-0.10;99.90;;;;;;5007963;28;19917;-75
2023/01/30 10:10:23;;;;;;;;;;;0.10;99.90;;;;;;5014816;28;20741;-75
2023/01/30 10:12:57;;;;;;;;;;;-0.20;99.90;;;;;;5010098;28;19909;-75
2023/01/30 10:15:41;;;;;;;;;;;0.10;99.90;;;;;;5006587;28;19913;-75
2023/01/30 10:18:07;;;;;;;;;;;-0.40;99.90;;;;;;5022927;28;19964;-75
2023/01/30 10:20:38;;;;;;;;;;;-0.40;99.90;;;;;;5010285;28;19925;-74
2023/01/30 10:23:16;;;;;;;;;;;-0.60;99.90;;;;;;5012860;28;20004;-75
2023/01/30 10:25:41;;;;;;;;;;;-0.50;99.90;;;;;;5015815;28;20031;-75
2023/01/30 10:28:25;;;;;;;;;;;-0.30;99.90;;;;;;5022636;28;19915;-75
2023/01/30 10:30:53;;;;;;;;;;;-0.30;99.90;;;;;;5009767;28;20153;-75
2023/01/30 10:33:32;;;;;;;;;;;-0.30;99.90;;;;;;5012979;28;19913;-75
2023/01/30 10:36:21;;;;;;;;;;;-0.10;99.90;;;;;;5015991;28;19913;-75
2023/01/30 10:38:48;;;;;;;;;;;0.20;99.90;;;;;;5003036;28;19909;-75
2023/01/30 10:41:14;;;;;;;;;;;0.50;99.90;;;;;;5006063;28;19924;-75
2023/01/30 10:43:47;;;;;;;;;;;0.70;99.90;;;;;;5011282;28;19931;-75
2023/01/30 10:46:31;;;;;;;;;;;0.50;99.90;;;;;;5013799;28;19910;-75
2023/01/30 10:49:01;;;;;;;;;;;0.30;99.90;;;;;;5013480;28;20123;-75
2023/01/30 10:51:44;;;;;;;;;;;0.40;99.90;;;;;;5013663;28;20009;-75
2023/01/30 10:54:25;;;;;;;;;;;0.40;99.90;;;;;;5016047;28;19989;-76
2023/01/30 10:56:59;;;;;;;;;;;0.50;99.90;;;;;;5023266;28;19909;-75
2023/01/30 10:59:27;;;;;;;;;;;0.60;99.90;;;;;;5011770;28;19929;-75
2023/01/30 11:01:58;;;;;;;;;;;0.70;99.90;;;;;;5011283;28;19916;-75
2023/01/30 11:04:26;;;;;;;;;;;0.70;99.90;;;;;;5006085;28;19915;-76
2023/01/30 11:06:52;;;;;;;;;;;0.90;99.90;;;;;;5003932;28;20448;-75
2023/01/30 11:09:18;;;;;;;;;;;1.30;99.90;;;;;;5006081;28;19909;-75
2023/01/30 11:11:48;;;;;;;;;;;1.50;99.90;;;;;;5005183;28;19944;-75
2023/01/30 11:14:14;;;;;;;;;;;1.30;99.90;;;;;;5014956;28;20186;-76
2023/01/30 11:16:45;;;;;;;;;;;1.40;99.90;;;;;;5005448;28;20605;-75
2023/01/30 11:19:11;;;;;;;;;;;1.80;99.90;;;;;;5015488;28;20281;-75
2023/01/30 11:21:41;;;;;;;;;;;2.10;99.90;;;;;;4996523;28;19925;-76
2023/01/30 11:24:15;;;;;;;;;;;1.40;99.90;;;;;;5017438;28;19992;-76
2023/01/30 11:26:41;;;;;;;;;;;2.00;99.90;;;;;;5011110;28;20102;-75
2023/01/30 11:29:29;;;;;;;;;;;3.00;99.90;;;;;;5004049;28;19920;-76
2023/01/30 11:31:55;;;;;;;;;;;3.60;99.90;;;;;;5015689;28;20813;-75
2023/01/30 11:34:22;;;;;;;;;;;4.00;99.80;;;;;;4994556;28;20277;-75
2023/01/30 11:36:49;;;;;;;;;;;3.90;98.90;;;;;;5015115;28;19987;-76
2023/01/30 11:39:16;;;;;;;;;;;3.70;99.20;;;;;;5013921;28;19917;-76
2023/01/30 11:42:03;;;;;;;;;;;4.00;99.90;;;;;;5014406;28;19924;-77
2023/01/30 11:44:31;;;;;;;;;;;3.70;99.90;;;;;;5012704;28;19916;-75
2023/01/30 11:46:57;;;;;;;;;;;4.10;99.60;;;;;;5009266;28;19910;-75
2023/01/30 11:49:25;;;;;;;;;;;3.90;99.70;;;;;;5010377;28;19909;-76
2023/01/30 11:51:52;;;;;;;;;;;3.80;99.90;;;;;;5006291;28;19908;-76
2023/01/30 11:54:19;;;;;;;;;;;3.60;99.90;;;;;;5011564;28;19944;-76
2023/01/30 11:56:52;;;;;;;;;;;3.80;99.90;;;;;;5017984;28;19955;-76
2023/01/30 11:59:27;;;;;;;;;;;3.70;99.90;;;;;;4963038;28;1187404;-76
2023/01/30 12:02:02;;;;;;;;;;;3.90;99.90;;;;;;5005812;28;19924;-75
2023/01/30 12:04:27;;;;;;;;;;;4.00;99.90;;;;;;5017550;28;19925;-76
2023/01/30 12:07:04;;;;;;;;;;;4.30;99.90;;;;;;5006409;28;19955;-76
2023/01/30 12:09:34;;;;;;;;;;;4.50;99.90;;;;;;5007874;28;19910;-76
2023/01/30 12:12:00;;;;;;;;;;;4.20;99.80;;;;;;5022178;28;19996;-76
2023/01/30 12:14:40;;;;;;;;;;;3.90;99.90;;;;;;5009919;28;20039;-76
2023/01/30 12:17:12;;;;;;;;;;;3.90;99.90;;;;;;5011958;28;19909;-76
2023/01/30 12:19:42;;;;;;;;;;;4.20;99.70;;;;;;5006388;28;19913;-76
2023/01/30 12:22:23;;;;;;;;;;;4.00;99.00;;;;;;5008640;28;20400;-76
2023/01/30 12:24:48;;;;;;;;;;;4.00;99.90;;;;;;5012367;28;20301;-76
2023/01/30 12:27:14;;;;;;;;;;;3.70;99.90;;;;;;5014322;28;19931;-76
2023/01/30 12:30:02;;;;;;;;;;;3.40;99.90;;;;;;5010353;28;19916;-75
2023/01/30 12:32:29;;;;;;;;;;;3.00;99.90;;;;;;5013481;28;19909;-77
2023/01/30 12:34:55;;;;;;;;;;;2.80;99.90;;;;;;5010271;28;19909;-77
2023/01/30 12:37:34;;;;;;;;;;;3.50;99.90;;;;;;5013045;28;19905;-76
2023/01/30 12:39:59;;;;;;;;;;;3.60;99.90;;;;;;5011236;28;19960;-76
2023/01/30 12:42:25;;;;;;;;;;;3.40;99.90;;;;;;5004935;28;20003;-77
2023/01/30 12:44:59;;;;;;;;;;;3.10;99.90;;;;;;5008143;28;20351;-76
2023/01/30 12:47:24;;;;;;;;;;;3.30;99.90;;;;;;5013164;28;20035;-75
2023/01/30 12:50:13;;;;;;;;;;;3.50;99.90;;;;;;5009112;28;20440;-76
2023/01/30 12:52:46;;;;;;;;;;;3.50;99.90;;;;;;5009511;28;19916;-76
2023/01/30 12:55:17;;;;;;;;;;;3.60;99.90;;;;;;5018339;28;19920;-77
2023/01/30 12:57:52;;;;;;;;;;;3.50;99.90;;;;;;5009660;28;19919;-77
2023/01/30 13:00:36;;;;;;;;;;;3.70;99.90;;;;;;5005816;28;19925;-76
2023/01/30 13:03:20;;;;;;;;;;;3.70;99.90;;;;;;5007712;28;19920;-76
2023/01/30 13:06:04;;;;;;;;;;;3.60;99.90;;;;;;5005237;28;19916;-76
2023/01/30 13:08:41;;;;;;;;;;;3.50;99.90;;;;;;5005427;28;19917;-77
2023/01/30 13:11:27;;;;;;;;;;;3.30;99.90;;;;;;5003924;28;19910;-77
2023/01/30 13:13:59;;;;;;;;;;;3.40;99.90;;;;;;5016200;28;19909;-77
2023/01/30 13:16:31;;;;;;;;;;;3.40;99.90;;;;;;5009761;28;19909;-76
2023/01/30 13:19:12;;;;;;;;;;;3.60;99.90;;;;;;5020513;28;19905;-76
2023/01/30 13:21:58;;;;;;;;;;;3.80;99.90;;;;;;5015694;28;19924;-77
2023/01/30 13:24:26;;;;;;;;;;;4.00;99.90;;;;;;5018867;28;20448;-75
2023/01/30 13:26:53;;;;;;;;;;;3.90;99.90;;;;;;5009113;28;20786;-77
2023/01/30 13:29:34;;;;;;;;;;;3.90;99.70;;;;;;5007604;28;19909;-76
2023/01/30 13:32:02;;;;;;;;;;;3.70;99.10;;;;;;5017355;28;20003;-76
2023/01/30 13:34:30;;;;;;;;;;;3.50;99.90;;;;;;5014757;28;20348;-75
2023/01/30 13:36:59;;;;;;;;;;;3.60;99.90;;;;;;5018377;28;19909;-76
2023/01/30 13:39:34;;;;;;;;;;;3.80;99.90;;;;;;5013213;28;19913;-76
2023/01/30 13:42:01;;;;;;;;;;;3.90;99.60;;;;;;5004092;28;19972;-76
2023/01/30 13:44:29;;;;;;;;;;;4.00;99.80;;;;;;5005123;28;20329;-77
2023/01/30 13:46:56;;;;;;;;;;;4.00;98.60;;;;;;5003186;28;19909;-76
2023/01/30 13:49:29;;;;;;;;;;;4.00;98.80;;;;;;5003576;28;19914;-76
2023/01/30 13:52:02;;;;;;;;;;;4.40;99.30;;;;;;5015665;28;19909;-77
2023/01/30 13:54:28;;;;;;;;;;;4.50;99.20;;;;;;5009251;28;19909;-78
2023/01/30 13:56:53;;;;;;;;;;;4.70;98.50;;;;;;5020248;28;19924;-78
2023/01/30 13:59:19;;;;;;;;;;;4.70;98.90;;;;;;5019205;28;19939;-77
2023/01/30 14:02:03;;;;;;;;;;;4.60;98.40;;;;;;5010471;28;19909;-77
2023/01/30 14:04:35;;;;;;;;;;;4.50;98.40;;;;;;5014673;28;20266;-77
2023/01/30 14:07:21;;;;;;;;;;;4.20;98.90;;;;;;5011072;28;19909;-76
2023/01/30 14:09:49;;;;;;;;;;;4.20;98.80;;;;;;5012897;28;19916;-76
2023/01/30 14:12:21;;;;;;;;;;;4.40;98.70;;;;;;5012467;28;19920;-77
2023/01/30 14:15:19;;;;;;;;;;;4.50;99.10;;;;;;5007377;28;19909;-77
2023/01/30 14:17:57;;;;;;;;;;;4.60;98.20;;;;;;5016629;28;19924;-76
2023/01/30 14:20:43;;;;;;;;;;;4.60;98.10;;;;;;5002902;28;19928;-78
2023/01/30 14:23:23;;;;;;;;;;;4.50;98.20;;;;;;5008945;28;19914;-75
2023/01/30 14:25:50;;;;;;;;;;;4.40;98.40;;;;;;4990075;28;19909;-77
2023/01/30 14:28:15;;;;;;;;;;;4.30;98.00;;;;;;5015163;28;19915;-77
2023/01/30 14:30:49;;;;;;;;;;;4.20;99.00;;;;;;5010723;28;19924;-76
2023/01/30 14:33:20;;;;;;;;;;;4.40;98.90;;;;;;5006084;28;19910;-76
2023/01/30 14:35:46;;;;;;;;;;;4.20;99.00;;;;;;5015849;28;20004;-76
2023/01/30 14:38:19;;;;;;;;;;;4.20;98.80;;;;;;5011627;28;19913;-77
2023/01/30 14:41:08;;;;;;;;;;;4.10;98.80;;;;;;5004869;28;19963;-76
2023/01/30 14:43:33;;;;;;;;;;;4.10;98.80;;;;;;5005521;28;19909;-77